KBLM/BLM METAR and TAF weather

Enter ICAO airport designator
Station Type Date Time Source
KBLM METAR 2018/12/10 19:56 UTC NOAA

KBLM 101956Z AUTO 34010KT 10SM CLR 03/M07 A3011 RMK AO2 SLP200 T00331067


Station Type Date Time Source
KBLM Decoded METAR 2018/12/10 19:56 UTC NOAA

Belmar-Farmingdale, NJ, United States (KBLM) 40-11N 074-08W
Dec 10, 2018 - 02:56 PM EST / 2018.12.10 1956 UTC
Wind: from the NNW (340 degrees) at 12 MPH (10 KT):0
Visibility: 10 mile(s):0
Sky conditions: clear
Temperature: 37.9 F (3.3 C)
Dew Point: 19.9 F (-6.7 C)
Relative Humidity: 47%
Pressure (altimeter): 30.11 in. Hg (1019 hPa)
ob: KBLM 101956Z AUTO 34010KT 10SM CLR 03/M07 A3011 RMK AO2 SLP200 T00331067
cycle: 20

Station Type Date Time Source
KBLM TAF UTC NOAA

Error!


Example: see airport list